sensor_id;sensor_type;location;lat;lon;timestamp;temperature;humidity
1614;DHT22;800;48.824;9.346;2023-02-22T00:00:36;11.90;54.80
1614;DHT22;800;48.824;9.346;2023-02-22T00:03:09;11.90;55.40
1614;DHT22;800;48.824;9.346;2023-02-22T00:05:36;11.90;54.90
1614;DHT22;800;48.824;9.346;2023-02-22T00:08:04;11.90;54.90
1614;DHT22;800;48.824;9.346;2023-02-22T00:10:34;11.80;54.90
1614;DHT22;800;48.824;9.346;2023-02-22T00:13:03;11.90;54.70
1614;DHT22;800;48.824;9.346;2023-02-22T00:15:30;11.90;54.50
1614;DHT22;800;48.824;9.346;2023-02-22T00:17:56;11.90;54.50
1614;DHT22;800;48.824;9.346;2023-02-22T00:20:22;11.80;54.70
1614;DHT22;800;48.824;9.346;2023-02-22T00:22:48;11.90;54.70
1614;DHT22;800;48.824;9.346;2023-02-22T00:25:17;11.90;54.60
1614;DHT22;800;48.824;9.346;2023-02-22T00:27:45;11.90;54.40
1614;DHT22;800;48.824;9.346;2023-02-22T00:30:24;11.90;54.20
1614;DHT22;800;48.824;9.346;2023-02-22T00:32:51;12.00;54.20
1614;DHT22;800;48.824;9.346;2023-02-22T00:35:20;11.90;54.10
1614;DHT22;800;48.824;9.346;2023-02-22T00:37:47;12.00;54.10
1614;DHT22;800;48.824;9.346;2023-02-22T00:40:19;12.00;54.10
1614;DHT22;800;48.824;9.346;2023-02-22T00:42:45;11.90;54.10
1614;DHT22;800;48.824;9.346;2023-02-22T00:45:12;11.80;54.50
1614;DHT22;800;48.824;9.346;2023-02-22T00:47:38;11.70;55.00
1614;DHT22;800;48.824;9.346;2023-02-22T00:50:04;11.60;55.20
1614;DHT22;800;48.824;9.346;2023-02-22T00:52:30;11.60;55.00
1614;DHT22;800;48.824;9.346;2023-02-22T00:54:55;11.60;54.80
1614;DHT22;800;48.824;9.346;2023-02-22T00:57:22;11.60;54.90
1614;DHT22;800;48.824;9.346;2023-02-22T00:59:48;11.60;55.00
1614;DHT22;800;48.824;9.346;2023-02-22T01:02:14;11.60;54.90
1614;DHT22;800;48.824;9.346;2023-02-22T01:04:40;11.60;55.00
1614;DHT22;800;48.824;9.346;2023-02-22T01:07:06;11.50;55.00
1614;DHT22;800;48.824;9.346;2023-02-22T01:09:31;11.50;55.20
1614;DHT22;800;48.824;9.346;2023-02-22T01:11:57;11.40;55.50
1614;DHT22;800;48.824;9.346;2023-02-22T01:14:24;11.30;55.90
1614;DHT22;800;48.824;9.346;2023-02-22T01:16:52;11.10;56.50
1614;DHT22;800;48.824;9.346;2023-02-22T01:19:19;10.90;57.50
1614;DHT22;800;48.824;9.346;2023-02-22T01:21:44;10.70;58.20
1614;DHT22;800;48.824;9.346;2023-02-22T01:24:11;10.50;58.70
1614;DHT22;800;48.824;9.346;2023-02-22T01:26:48;10.30;59.30
1614;DHT22;800;48.824;9.346;2023-02-22T01:29:15;10.40;59.30
1614;DHT22;800;48.824;9.346;2023-02-22T01:31:42;10.20;59.20
1614;DHT22;800;48.824;9.346;2023-02-22T01:34:11;10.20;59.50
1614;DHT22;800;48.824;9.346;2023-02-22T01:36:37;9.90;61.20
1614;DHT22;800;48.824;9.346;2023-02-22T01:39:05;10.00;59.80
1614;DHT22;800;48.824;9.346;2023-02-22T01:41:31;9.90;59.90
1614;DHT22;800;48.824;9.346;2023-02-22T01:43:57;9.80;60.50
1614;DHT22;800;48.824;9.346;2023-02-22T01:46:24;9.70;60.50
1614;DHT22;800;48.824;9.346;2023-02-22T01:48:59;9.80;60.40
1614;DHT22;800;48.824;9.346;2023-02-22T01:51:31;10.00;59.40
1614;DHT22;800;48.824;9.346;2023-02-22T01:54:22;10.10;59.00
1614;DHT22;800;48.824;9.346;2023-02-22T01:57:31;10.20;58.60
1614;DHT22;800;48.824;9.346;2023-02-22T02:00:04;10.30;58.50
1614;DHT22;800;48.824;9.346;2023-02-22T02:02:40;10.10;58.40
1614;DHT22;800;48.824;9.346;2023-02-22T02:05:07;9.90;60.40
1614;DHT22;800;48.824;9.346;2023-02-22T02:07:35;9.80;61.00
1614;DHT22;800;48.824;9.346;2023-02-22T02:10:05;9.80;61.10
1614;DHT22;800;48.824;9.346;2023-02-22T02:12:34;9.80;61.10
1614;DHT22;800;48.824;9.346;2023-02-22T02:15:27;9.90;60.70
1614;DHT22;800;48.824;9.346;2023-02-22T02:17:55;10.00;59.90
1614;DHT22;800;48.824;9.346;2023-02-22T02:20:23;9.90;61.50
1614;DHT22;800;48.824;9.346;2023-02-22T02:28:30;9.90;62.10
1614;DHT22;800;48.824;9.346;2023-02-22T02:37:01;9.70;62.30
1614;DHT22;800;48.824;9.346;2023-02-22T02:39:37;9.90;61.50
1614;DHT22;800;48.824;9.346;2023-02-22T02:42:08;9.90;60.90
1614;DHT22;800;48.824;9.346;2023-02-22T02:44:40;9.70;61.60
1614;DHT22;800;48.824;9.346;2023-02-22T02:47:16;9.70;62.10
1614;DHT22;800;48.824;9.346;2023-02-22T02:50:02;9.90;61.90
1614;DHT22;800;48.824;9.346;2023-02-22T02:52:28;9.80;62.00
1614;DHT22;800;48.824;9.346;2023-02-22T02:54:57;9.80;62.20
1614;DHT22;800;48.824;9.346;2023-02-22T02:57:24;9.70;62.30
1614;DHT22;800;48.824;9.346;2023-02-22T02:59:49;9.60;62.90
1614;DHT22;800;48.824;9.346;2023-02-22T03:02:39;9.70;63.10
1614;DHT22;800;48.824;9.346;2023-02-22T03:16:20;10.50;59.30
1614;DHT22;800;48.824;9.346;2023-02-22T03:21:20;10.20;59.00
1614;DHT22;800;48.824;9.346;2023-02-22T03:24:05;10.00;59.40
1614;DHT22;800;48.824;9.346;2023-02-22T03:26:45;9.80;61.70
1614;DHT22;800;48.824;9.346;2023-02-22T03:29:14;9.60;62.20
1614;DHT22;800;48.824;9.346;2023-02-22T03:31:56;9.60;62.30
1614;DHT22;800;48.824;9.346;2023-02-22T03:34:36;9.50;62.60
1614;DHT22;800;48.824;9.346;2023-02-22T03:37:11;9.40;63.30
1614;DHT22;800;48.824;9.346;2023-02-22T03:39:39;9.40;63.30
1614;DHT22;800;48.824;9.346;2023-02-22T03:42:11;9.50;63.30
1614;DHT22;800;48.824;9.346;2023-02-22T03:44:40;9.50;62.70
1614;DHT22;800;48.824;9.346;2023-02-22T03:47:13;9.50;63.50
1614;DHT22;800;48.824;9.346;2023-02-22T03:49:54;9.40;63.00
1614;DHT22;800;48.824;9.346;2023-02-22T03:52:22;9.50;62.80
1614;DHT22;800;48.824;9.346;2023-02-22T03:54:49;9.30;63.10
1614;DHT22;800;48.824;9.346;2023-02-22T03:57:36;9.40;62.80
1614;DHT22;800;48.824;9.346;2023-02-22T04:00:14;9.30;63.10
1614;DHT22;800;48.824;9.346;2023-02-22T04:02:41;9.30;63.20
1614;DHT22;800;48.824;9.346;2023-02-22T04:05:07;9.10;63.90
1614;DHT22;800;48.824;9.346;2023-02-22T04:07:33;9.00;64.50
1614;DHT22;800;48.824;9.346;2023-02-22T04:09:59;8.90;65.20
1614;DHT22;800;48.824;9.346;2023-02-22T04:12:26;9.00;65.20
1614;DHT22;800;48.824;9.346;2023-02-22T04:14:52;9.00;64.80
1614;DHT22;800;48.824;9.346;2023-02-22T04:17:18;9.10;64.30
1614;DHT22;800;48.824;9.346;2023-02-22T04:19:43;9.20;64.50
1614;DHT22;800;48.824;9.346;2023-02-22T04:22:10;9.10;64.10
1614;DHT22;800;48.824;9.346;2023-02-22T04:24:36;8.90;64.40
1614;DHT22;800;48.824;9.346;2023-02-22T04:27:01;8.70;65.20
1614;DHT22;800;48.824;9.346;2023-02-22T04:29:28;8.70;65.60
1614;DHT22;800;48.824;9.346;2023-02-22T04:31:54;8.60;66.50
1614;DHT22;800;48.824;9.346;2023-02-22T04:34:19;8.50;66.50
1614;DHT22;800;48.824;9.346;2023-02-22T04:36:45;8.50;66.20
1614;DHT22;800;48.824;9.346;2023-02-22T04:39:11;8.50;66.80
1614;DHT22;800;48.824;9.346;2023-02-22T04:41:37;8.60;66.20
1614;DHT22;800;48.824;9.346;2023-02-22T04:44:02;8.70;66.20
1614;DHT22;800;48.824;9.346;2023-02-22T04:46:28;8.70;65.80
1614;DHT22;800;48.824;9.346;2023-02-22T04:48:53;8.70;65.50
1614;DHT22;800;48.824;9.346;2023-02-22T04:51:19;8.90;64.60
1614;DHT22;800;48.824;9.346;2023-02-22T04:53:45;8.90;64.40
1614;DHT22;800;48.824;9.346;2023-02-22T04:56:11;8.80;64.10
1614;DHT22;800;48.824;9.346;2023-02-22T04:58:37;8.90;63.90
1614;DHT22;800;48.824;9.346;2023-02-22T05:01:02;8.90;63.70
1614;DHT22;800;48.824;9.346;2023-02-22T05:03:28;8.80;64.30
1614;DHT22;800;48.824;9.346;2023-02-22T05:05:53;8.80;64.00
1614;DHT22;800;48.824;9.346;2023-02-22T05:08:19;8.80;63.80
1614;DHT22;800;48.824;9.346;2023-02-22T05:10:45;8.80;63.60
1614;DHT22;800;48.824;9.346;2023-02-22T05:13:10;8.70;63.50
1614;DHT22;800;48.824;9.346;2023-02-22T05:15:36;8.70;63.30
1614;DHT22;800;48.824;9.346;2023-02-22T05:18:02;8.80;63.50
1614;DHT22;800;48.824;9.346;2023-02-22T05:20:33;8.90;63.20
1614;DHT22;800;48.824;9.346;2023-02-22T05:22:59;8.70;63.30
1614;DHT22;800;48.824;9.346;2023-02-22T05:25:26;8.80;63.20
1614;DHT22;800;48.824;9.346;2023-02-22T05:27:58;8.90;62.90
1614;DHT22;800;48.824;9.346;2023-02-22T05:30:29;9.00;62.20
1614;DHT22;800;48.824;9.346;2023-02-22T05:32:55;8.80;62.80
1614;DHT22;800;48.824;9.346;2023-02-22T05:35:22;8.90;62.80
1614;DHT22;800;48.824;9.346;2023-02-22T05:37:48;8.70;62.50
1614;DHT22;800;48.824;9.346;2023-02-22T05:40:19;8.90;62.70
1614;DHT22;800;48.824;9.346;2023-02-22T05:42:46;9.00;62.00
1614;DHT22;800;48.824;9.346;2023-02-22T05:45:13;9.10;61.70
1614;DHT22;800;48.824;9.346;2023-02-22T05:47:39;9.10;61.30
1614;DHT22;800;48.824;9.346;2023-02-22T05:50:05;9.00;61.10
1614;DHT22;800;48.824;9.346;2023-02-22T05:52:31;9.00;61.40
1614;DHT22;800;48.824;9.346;2023-02-22T05:54:56;8.90;61.50
1614;DHT22;800;48.824;9.346;2023-02-22T05:57:22;8.80;62.00
1614;DHT22;800;48.824;9.346;2023-02-22T05:59:48;8.80;62.20
1614;DHT22;800;48.824;9.346;2023-02-22T06:02:14;8.70;62.70
1614;DHT22;800;48.824;9.346;2023-02-22T06:04:42;8.70;62.60
1614;DHT22;800;48.824;9.346;2023-02-22T06:07:08;8.70;63.00
1614;DHT22;800;48.824;9.346;2023-02-22T06:09:33;8.80;63.00
1614;DHT22;800;48.824;9.346;2023-02-22T06:11:59;8.70;62.60
1614;DHT22;800;48.824;9.346;2023-02-22T06:14:24;8.90;62.50
1614;DHT22;800;48.824;9.346;2023-02-22T06:16:54;8.80;62.60
1614;DHT22;800;48.824;9.346;2023-02-22T06:19:20;8.60;63.10
1614;DHT22;800;48.824;9.346;2023-02-22T06:22:04;8.60;63.60
1614;DHT22;800;48.824;9.346;2023-02-22T06:24:29;8.50;64.10
1614;DHT22;800;48.824;9.346;2023-02-22T06:26:56;8.40;64.70
1614;DHT22;800;48.824;9.346;2023-02-22T06:29:23;8.20;65.70
1614;DHT22;800;48.824;9.346;2023-02-22T06:31:49;8.20;66.00
1614;DHT22;800;48.824;9.346;2023-02-22T06:34:15;8.30;65.70
1614;DHT22;800;48.824;9.346;2023-02-22T06:36:41;8.20;65.90
1614;DHT22;800;48.824;9.346;2023-02-22T06:39:07;8.30;66.00
1614;DHT22;800;48.824;9.346;2023-02-22T06:41:38;8.20;66.50
1614;DHT22;800;48.824;9.346;2023-02-22T06:44:04;8.30;66.10
1614;DHT22;800;48.824;9.346;2023-02-22T06:46:30;8.40;66.10
1614;DHT22;800;48.824;9.346;2023-02-22T06:48:55;8.40;66.20
1614;DHT22;800;48.824;9.346;2023-02-22T06:51:24;8.40;66.20
1614;DHT22;800;48.824;9.346;2023-02-22T06:53:50;8.50;66.10
1614;DHT22;800;48.824;9.346;2023-02-22T06:56:16;8.70;65.60
1614;DHT22;800;48.824;9.346;2023-02-22T06:58:42;9.00;65.00
1614;DHT22;800;48.824;9.346;2023-02-22T07:01:07;9.40;64.10
1614;DHT22;800;48.824;9.346;2023-02-22T07:03:34;9.50;63.40
1614;DHT22;800;48.824;9.346;2023-02-22T07:06:00;9.70;62.40
1614;DHT22;800;48.824;9.346;2023-02-22T07:08:26;9.90;61.30
1614;DHT22;800;48.824;9.346;2023-02-22T07:10:52;10.00;59.60
1614;DHT22;800;48.824;9.346;2023-02-22T07:13:18;10.20;59.30
1614;DHT22;800;48.824;9.346;2023-02-22T07:15:44;10.40;59.20
1614;DHT22;800;48.824;9.346;2023-02-22T07:18:09;10.60;58.60
1614;DHT22;800;48.824;9.346;2023-02-22T07:20:36;10.70;57.90
1614;DHT22;800;48.824;9.346;2023-02-22T07:23:03;10.50;58.10
1614;DHT22;800;48.824;9.346;2023-02-22T07:25:28;10.50;58.70
1614;DHT22;800;48.824;9.346;2023-02-22T07:27:54;10.70;58.60
1614;DHT22;800;48.824;9.346;2023-02-22T07:30:25;10.90;58.10
1614;DHT22;800;48.824;9.346;2023-02-22T07:32:53;11.20;57.80
1614;DHT22;800;48.824;9.346;2023-02-22T07:35:22;11.50;57.30
1614;DHT22;800;48.824;9.346;2023-02-22T07:37:48;11.70;56.90
1614;DHT22;800;48.824;9.346;2023-02-22T07:40:15;12.00;56.40
1614;DHT22;800;48.824;9.346;2023-02-22T07:42:59;12.30;55.70
1614;DHT22;800;48.824;9.346;2023-02-22T07:45:31;12.60;54.90
1614;DHT22;800;48.824;9.346;2023-02-22T07:47:58;12.80;54.20
1614;DHT22;800;48.824;9.346;2023-02-22T07:50:26;13.00;53.60
1614;DHT22;800;48.824;9.346;2023-02-22T07:52:54;13.20;53.20
1614;DHT22;800;48.824;9.346;2023-02-22T07:55:23;13.30;52.60
1614;DHT22;800;48.824;9.346;2023-02-22T07:57:51;13.40;52.40
1614;DHT22;800;48.824;9.346;2023-02-22T08:00:25;13.40;52.10
1614;DHT22;800;48.824;9.346;2023-02-22T08:02:52;13.40;52.20
1614;DHT22;800;48.824;9.346;2023-02-22T08:05:19;13.50;52.40
1614;DHT22;800;48.824;9.346;2023-02-22T08:07:44;13.50;52.30
1614;DHT22;800;48.824;9.346;2023-02-22T08:10:12;13.60;52.40
1614;DHT22;800;48.824;9.346;2023-02-22T08:12:38;13.70;52.20
1614;DHT22;800;48.824;9.346;2023-02-22T08:15:06;13.80;52.10
1614;DHT22;800;48.824;9.346;2023-02-22T08:17:33;13.90;51.90
1614;DHT22;800;48.824;9.346;2023-02-22T08:19:59;14.00;51.70
1614;DHT22;800;48.824;9.346;2023-02-22T08:22:25;14.10;51.60
1614;DHT22;800;48.824;9.346;2023-02-22T08:24:53;14.10;51.70
1614;DHT22;800;48.824;9.346;2023-02-22T08:27:23;14.20;52.20
1614;DHT22;800;48.824;9.346;2023-02-22T08:29:50;14.20;51.90
1614;DHT22;800;48.824;9.346;2023-02-22T08:32:15;14.30;51.50
1614;DHT22;800;48.824;9.346;2023-02-22T08:34:42;14.40;51.80
1614;DHT22;800;48.824;9.346;2023-02-22T08:37:08;14.50;52.10
1614;DHT22;800;48.824;9.346;2023-02-22T08:39:34;14.50;51.90
1614;DHT22;800;48.824;9.346;2023-02-22T08:41:59;14.60;51.80
1614;DHT22;800;48.824;9.346;2023-02-22T08:44:25;14.60;51.90
1614;DHT22;800;48.824;9.346;2023-02-22T08:46:51;14.60;51.70
1614;DHT22;800;48.824;9.346;2023-02-22T08:49:17;14.60;51.80
1614;DHT22;800;48.824;9.346;2023-02-22T08:51:42;14.60;51.80
1614;DHT22;800;48.824;9.346;2023-02-22T08:54:08;14.60;51.70
1614;DHT22;800;48.824;9.346;2023-02-22T08:56:34;14.60;51.80
1614;DHT22;800;48.824;9.346;2023-02-22T08:58:59;14.50;51.50
1614;DHT22;800;48.824;9.346;2023-02-22T09:01:25;14.50;51.30
1614;DHT22;800;48.824;9.346;2023-02-22T09:03:52;14.60;50.70
1614;DHT22;800;48.824;9.346;2023-02-22T09:06:17;14.80;50.40
1614;DHT22;800;48.824;9.346;2023-02-22T09:08:43;14.90;50.60
1614;DHT22;800;48.824;9.346;2023-02-22T09:11:09;15.00;50.10
1614;DHT22;800;48.824;9.346;2023-02-22T09:13:34;15.10;50.60
1614;DHT22;800;48.824;9.346;2023-02-22T09:16:00;15.20;50.00
1614;DHT22;800;48.824;9.346;2023-02-22T09:18:26;15.30;48.80
1614;DHT22;800;48.824;9.346;2023-02-22T09:20:53;15.30;48.60
1614;DHT22;800;48.824;9.346;2023-02-22T09:23:19;15.40;48.60
1614;DHT22;800;48.824;9.346;2023-02-22T09:25:49;15.50;48.50
1614;DHT22;800;48.824;9.346;2023-02-22T09:28:15;15.70;48.10
1614;DHT22;800;48.824;9.346;2023-02-22T09:30:41;15.50;48.00
1614;DHT22;800;48.824;9.346;2023-02-22T09:33:13;15.70;48.20
1614;DHT22;800;48.824;9.346;2023-02-22T09:35:40;15.80;48.30
1614;DHT22;800;48.824;9.346;2023-02-22T09:38:20;15.80;48.30
1614;DHT22;800;48.824;9.346;2023-02-22T09:41:12;15.80;48.90
1614;DHT22;800;48.824;9.346;2023-02-22T09:43:48;15.70;48.90
1614;DHT22;800;48.824;9.346;2023-02-22T09:46:31;15.60;49.30
1614;DHT22;800;48.824;9.346;2023-02-22T09:49:08;15.90;49.10
1614;DHT22;800;48.824;9.346;2023-02-22T09:57:04;16.10;48.60
1614;DHT22;800;48.824;9.346;2023-02-22T09:59:39;16.20;48.20
1614;DHT22;800;48.824;9.346;2023-02-22T10:02:26;16.30;47.60
1614;DHT22;800;48.824;9.346;2023-02-22T10:07:39;16.50;47.30
1614;DHT22;800;48.824;9.346;2023-02-22T10:10:17;16.50;47.00
1614;DHT22;800;48.824;9.346;2023-02-22T10:25:54;17.20;46.20
1614;DHT22;800;48.824;9.346;2023-02-22T10:28:33;17.40;46.30
1614;DHT22;800;48.824;9.346;2023-02-22T10:31:07;17.70;46.20
1614;DHT22;800;48.824;9.346;2023-02-22T10:33:38;17.70;45.50
1614;DHT22;800;48.824;9.346;2023-02-22T10:36:20;17.80;45.70
1614;DHT22;800;48.824;9.346;2023-02-22T10:41:35;18.00;45.40
1614;DHT22;800;48.824;9.346;2023-02-22T10:44:02;18.20;46.20
1614;DHT22;800;48.824;9.346;2023-02-22T10:46:29;18.50;45.60
1614;DHT22;800;48.824;9.346;2023-02-22T10:49:02;18.50;44.30
1614;DHT22;800;48.824;9.346;2023-02-22T10:51:29;17.90;45.60
1614;DHT22;800;48.824;9.346;2023-02-22T10:56:50;18.60;45.80
1614;DHT22;800;48.824;9.346;2023-02-22T10:59:45;19.00;45.10
1614;DHT22;800;48.824;9.346;2023-02-22T11:04:51;19.60;43.00
1614;DHT22;800;48.824;9.346;2023-02-22T11:07:32;19.70;43.20
1614;DHT22;800;48.824;9.346;2023-02-22T11:09:59;19.90;43.40
1614;DHT22;800;48.824;9.346;2023-02-22T11:14:51;19.90;42.50
1614;DHT22;800;48.824;9.346;2023-02-22T11:17:29;20.00;42.40
1614;DHT22;800;48.824;9.346;2023-02-22T11:19:55;20.10;42.40
1614;DHT22;800;48.824;9.346;2023-02-22T11:22:38;20.10;41.70
1614;DHT22;800;48.824;9.346;2023-02-22T11:25:05;20.30;41.70
1614;DHT22;800;48.824;9.346;2023-02-22T11:27:38;20.40;41.80
1614;DHT22;800;48.824;9.346;2023-02-22T11:33:02;20.50;41.40
1614;DHT22;800;48.824;9.346;2023-02-22T11:35:39;20.30;41.20
1614;DHT22;800;48.824;9.346;2023-02-22T11:38:20;20.40;41.50
1614;DHT22;800;48.824;9.346;2023-02-22T11:41:11;20.50;41.10
1614;DHT22;800;48.824;9.346;2023-02-22T11:43:47;20.60;41.10
1614;DHT22;800;48.824;9.346;2023-02-22T11:46:17;20.60;40.90
1614;DHT22;800;48.824;9.346;2023-02-22T11:48:55;20.60;41.10
1614;DHT22;800;48.824;9.346;2023-02-22T11:54:21;20.50;40.80
1614;DHT22;800;48.824;9.346;2023-02-22T11:57:04;20.50;40.50
1614;DHT22;800;48.824;9.346;2023-02-22T12:05:04;20.60;40.40
1614;DHT22;800;48.824;9.346;2023-02-22T12:07:44;20.60;40.10
1614;DHT22;800;48.824;9.346;2023-02-22T12:10:43;20.60;40.40
1614;DHT22;800;48.824;9.346;2023-02-22T12:21:23;20.50;40.50
1614;DHT22;800;48.824;9.346;2023-02-22T12:24:05;20.50;40.00
1614;DHT22;800;48.824;9.346;2023-02-22T12:26:52;20.50;40.40
1614;DHT22;800;48.824;9.346;2023-02-22T12:31:56;20.30;40.80
1614;DHT22;800;48.824;9.346;2023-02-22T12:45:37;20.50;41.10
1614;DHT22;800;48.824;9.346;2023-02-22T12:51:37;20.50;41.40
1614;DHT22;800;48.824;9.346;2023-02-22T12:54:12;20.50;41.90
1614;DHT22;800;48.824;9.346;2023-02-22T12:56:48;20.50;41.00
1614;DHT22;800;48.824;9.346;2023-02-22T12:59:38;20.50;41.20
1614;DHT22;800;48.824;9.346;2023-02-22T13:02:17;20.40;40.00
1614;DHT22;800;48.824;9.346;2023-02-22T13:04:45;20.40;40.20
1614;DHT22;800;48.824;9.346;2023-02-22T13:07:36;20.30;40.50
1614;DHT22;800;48.824;9.346;2023-02-22T13:18:21;20.50;40.80
1614;DHT22;800;48.824;9.346;2023-02-22T13:24:01;20.50;41.10
1614;DHT22;800;48.824;9.346;2023-02-22T13:26:58;20.60;41.20
1614;DHT22;800;48.824;9.346;2023-02-22T13:29:29;20.70;41.40
1614;DHT22;800;48.824;9.346;2023-02-22T13:32:03;20.70;41.30
1614;DHT22;800;48.824;9.346;2023-02-22T13:40:19;20.70;41.00
1614;DHT22;800;48.824;9.346;2023-02-22T13:53:56;20.50;42.10
1614;DHT22;800;48.824;9.346;2023-02-22T13:56:24;20.50;41.90
1614;DHT22;800;48.824;9.346;2023-02-22T13:58:53;20.60;42.20
1614;DHT22;800;48.824;9.346;2023-02-22T14:01:46;20.90;41.80
1614;DHT22;800;48.824;9.346;2023-02-22T14:06:49;21.10;42.30
1614;DHT22;800;48.824;9.346;2023-02-22T14:09:39;21.20;41.30
1614;DHT22;800;48.824;9.346;2023-02-22T14:12:02;21.30;40.40
1614;DHT22;800;48.824;9.346;2023-02-22T14:14:28;21.20;40.80
1614;DHT22;800;48.824;9.346;2023-02-22T14:20:03;21.30;40.50
1614;DHT22;800;48.824;9.346;2023-02-22T14:22:30;21.40;40.20
1614;DHT22;800;48.824;9.346;2023-02-22T14:24:56;21.40;40.70
1614;DHT22;800;48.824;9.346;2023-02-22T14:27:21;21.40;40.60
1614;DHT22;800;48.824;9.346;2023-02-22T14:29:56;21.50;40.40
1614;DHT22;800;48.824;9.346;2023-02-22T14:32:32;21.40;40.80
1614;DHT22;800;48.824;9.346;2023-02-22T14:35:12;21.50;41.20
1614;DHT22;800;48.824;9.346;2023-02-22T14:37:41;21.50;41.40
1614;DHT22;800;48.824;9.346;2023-02-22T14:40:29;21.50;40.80
1614;DHT22;800;48.824;9.346;2023-02-22T14:43:10;21.60;40.30
1614;DHT22;800;48.824;9.346;2023-02-22T14:45:44;21.50;39.80
1614;DHT22;800;48.824;9.346;2023-02-22T14:50:56;21.60;40.20
1614;DHT22;800;48.824;9.346;2023-02-22T14:53:37;21.60;40.00
1614;DHT22;800;48.824;9.346;2023-02-22T14:56:07;21.60;40.30
1614;DHT22;800;48.824;9.346;2023-02-22T15:01:31;21.60;40.40
1614;DHT22;800;48.824;9.346;2023-02-22T15:04:22;21.60;40.30
1614;DHT22;800;48.824;9.346;2023-02-22T15:06:50;21.60;40.60
1614;DHT22;800;48.824;9.346;2023-02-22T15:09:22;21.60;40.60
1614;DHT22;800;48.824;9.346;2023-02-22T15:11:54;21.70;40.80
1614;DHT22;800;48.824;9.346;2023-02-22T15:14:36;21.60;40.70
1614;DHT22;800;48.824;9.346;2023-02-22T15:17:20;21.60;39.90
1614;DHT22;800;48.824;9.346;2023-02-22T15:19:47;21.50;39.60
1614;DHT22;800;48.824;9.346;2023-02-22T15:22:25;21.30;40.00
1614;DHT22;800;48.824;9.346;2023-02-22T15:24:59;21.30;40.20
1614;DHT22;800;48.824;9.346;2023-02-22T15:27:25;21.10;40.70
1614;DHT22;800;48.824;9.346;2023-02-22T15:29:57;21.00;40.90
1614;DHT22;800;48.824;9.346;2023-02-22T15:32:33;21.00;41.10
1614;DHT22;800;48.824;9.346;2023-02-22T15:38:00;20.80;42.00
1614;DHT22;800;48.824;9.346;2023-02-22T15:40:27;20.60;42.30
1614;DHT22;800;48.824;9.346;2023-02-22T15:42:59;20.60;42.50
1614;DHT22;800;48.824;9.346;2023-02-22T15:45:25;20.60;42.40
1614;DHT22;800;48.824;9.346;2023-02-22T15:47:53;20.60;42.40
1614;DHT22;800;48.824;9.346;2023-02-22T15:50:30;20.60;42.50
1614;DHT22;800;48.824;9.346;2023-02-22T15:53:21;20.50;42.50
1614;DHT22;800;48.824;9.346;2023-02-22T15:55:54;20.40;42.60
1614;DHT22;800;48.824;9.346;2023-02-22T15:58:22;20.40;42.70
1614;DHT22;800;48.824;9.346;2023-02-22T16:01:00;20.40;42.80
1614;DHT22;800;48.824;9.346;2023-02-22T16:03:30;20.40;42.90
1614;DHT22;800;48.824;9.346;2023-02-22T16:05:58;20.30;43.00
1614;DHT22;800;48.824;9.346;2023-02-22T16:08:47;20.20;43.30
1614;DHT22;800;48.824;9.346;2023-02-22T16:11:41;20.20;43.40
1614;DHT22;800;48.824;9.346;2023-02-22T16:17:30;20.10;43.70
1614;DHT22;800;48.824;9.346;2023-02-22T16:20:29;20.10;43.90
1614;DHT22;800;48.824;9.346;2023-02-22T16:22:56;20.00;43.90
1614;DHT22;800;48.824;9.346;2023-02-22T16:25:31;20.00;43.80
1614;DHT22;800;48.824;9.346;2023-02-22T16:28:03;20.00;43.80
1614;DHT22;800;48.824;9.346;2023-02-22T16:30:56;20.00;43.90
1614;DHT22;800;48.824;9.346;2023-02-22T16:33:21;19.90;43.90
1614;DHT22;800;48.824;9.346;2023-02-22T16:35:47;19.90;44.00
1614;DHT22;800;48.824;9.346;2023-02-22T16:38:22;19.80;44.10
1614;DHT22;800;48.824;9.346;2023-02-22T16:40:56;19.70;44.40
1614;DHT22;800;48.824;9.346;2023-02-22T16:43:25;19.70;44.60
1614;DHT22;800;48.824;9.346;2023-02-22T16:45:52;19.60;44.70
1614;DHT22;800;48.824;9.346;2023-02-22T16:48:20;19.60;44.90
1614;DHT22;800;48.824;9.346;2023-02-22T16:50:47;19.60;44.90
1614;DHT22;800;48.824;9.346;2023-02-22T16:53:15;19.60;45.00
1614;DHT22;800;48.824;9.346;2023-02-22T16:55:45;19.50;44.90
1614;DHT22;800;48.824;9.346;2023-02-22T16:58:15;19.50;45.10
1614;DHT22;800;48.824;9.346;2023-02-22T17:00:41;19.50;45.20
1614;DHT22;800;48.824;9.346;2023-02-22T17:03:15;19.40;45.30
1614;DHT22;800;48.824;9.346;2023-02-22T17:05:42;19.40;45.40
1614;DHT22;800;48.824;9.346;2023-02-22T17:08:07;19.30;45.40
1614;DHT22;800;48.824;9.346;2023-02-22T17:10:33;19.30;45.50
1614;DHT22;800;48.824;9.346;2023-02-22T17:12:59;19.20;45.60
1614;DHT22;800;48.824;9.346;2023-02-22T17:15:28;19.10;45.60
1614;DHT22;800;48.824;9.346;2023-02-22T17:17:55;19.10;45.90
1614;DHT22;800;48.824;9.346;2023-02-22T17:20:22;19.00;46.00
1614;DHT22;800;48.824;9.346;2023-02-22T17:25:32;18.90;46.20
1614;DHT22;800;48.824;9.346;2023-02-22T17:27:59;18.80;46.20
1614;DHT22;800;48.824;9.346;2023-02-22T17:30:25;18.80;46.30
1614;DHT22;800;48.824;9.346;2023-02-22T17:32:51;18.80;46.40
1614;DHT22;800;48.824;9.346;2023-02-22T17:35:19;18.70;46.50
1614;DHT22;800;48.824;9.346;2023-02-22T17:37:50;18.70;46.60
1614;DHT22;800;48.824;9.346;2023-02-22T17:40:16;18.70;46.80
1614;DHT22;800;48.824;9.346;2023-02-22T17:42:42;18.70;46.90
1614;DHT22;800;48.824;9.346;2023-02-22T17:45:09;18.70;46.90
1614;DHT22;800;48.824;9.346;2023-02-22T17:47:39;18.70;47.10
1614;DHT22;800;48.824;9.346;2023-02-22T17:50:05;18.70;47.20
1614;DHT22;800;48.824;9.346;2023-02-22T17:52:31;18.60;47.30
1614;DHT22;800;48.824;9.346;2023-02-22T17:54:57;18.60;47.40
1614;DHT22;800;48.824;9.346;2023-02-22T17:57:22;18.60;47.50
1614;DHT22;800;48.824;9.346;2023-02-22T17:59:48;18.60;47.50
1614;DHT22;800;48.824;9.346;2023-02-22T18:02:14;18.50;47.50
1614;DHT22;800;48.824;9.346;2023-02-22T18:04:40;18.50;47.60
1614;DHT22;800;48.824;9.346;2023-02-22T18:07:05;18.50;47.70
1614;DHT22;800;48.824;9.346;2023-02-22T18:09:31;18.40;47.80
1614;DHT22;800;48.824;9.346;2023-02-22T18:11:56;18.40;47.80
1614;DHT22;800;48.824;9.346;2023-02-22T18:14:22;18.40;47.90
1614;DHT22;800;48.824;9.346;2023-02-22T18:16:48;18.30;48.00
1614;DHT22;800;48.824;9.346;2023-02-22T18:19:13;18.30;48.00
1614;DHT22;800;48.824;9.346;2023-02-22T18:21:44;18.20;47.90
1614;DHT22;800;48.824;9.346;2023-02-22T18:24:09;18.20;47.90
1614;DHT22;800;48.824;9.346;2023-02-22T18:26:35;18.20;47.90
1614;DHT22;800;48.824;9.346;2023-02-22T18:29:04;18.20;47.80
1614;DHT22;800;48.824;9.346;2023-02-22T18:31:30;18.10;47.80
1614;DHT22;800;48.824;9.346;2023-02-22T18:33:55;18.10;47.80
1614;DHT22;800;48.824;9.346;2023-02-22T18:36:22;18.10;47.90
1614;DHT22;800;48.824;9.346;2023-02-22T18:38:49;18.00;47.90
1614;DHT22;800;48.824;9.346;2023-02-22T18:41:17;18.00;48.00
1614;DHT22;800;48.824;9.346;2023-02-22T18:43:44;18.00;48.50
1614;DHT22;800;48.824;9.346;2023-02-22T18:46:13;17.90;47.90
1614;DHT22;800;48.824;9.346;2023-02-22T18:48:39;17.90;48.00
1614;DHT22;800;48.824;9.346;2023-02-22T18:51:10;18.00;48.10
1614;DHT22;800;48.824;9.346;2023-02-22T18:53:38;17.90;48.30
1614;DHT22;800;48.824;9.346;2023-02-22T18:56:09;17.80;48.40
1614;DHT22;800;48.824;9.346;2023-02-22T18:58:36;17.80;48.60
1614;DHT22;800;48.824;9.346;2023-02-22T19:01:04;17.80;48.70
1614;DHT22;800;48.824;9.346;2023-02-22T19:03:31;17.70;48.70